createdAt,value
2023-05-04T00:01:19.251Z,99.90
2023-05-04T00:04:03.350Z,99.90
2023-05-04T00:06:39.299Z,99.90
2023-05-04T00:09:17.296Z,99.90
2023-05-04T00:11:54.811Z,99.90
2023-05-04T00:14:35.727Z,99.90
2023-05-04T00:17:14.302Z,99.90
2023-05-04T00:20:02.024Z,99.90
2023-05-04T00:22:38.687Z,99.90
2023-05-04T00:25:17.027Z,99.90
2023-05-04T00:28:00.877Z,99.90
2023-05-04T00:30:37.064Z,99.90
2023-05-04T00:33:20.606Z,99.90
2023-05-04T00:36:04.957Z,99.90
2023-05-04T00:38:57.525Z,99.90
2023-05-04T00:41:37.496Z,99.90
2023-05-04T00:44:18.286Z,99.90
2023-05-04T00:46:59.305Z,99.90
2023-05-04T00:49:35.549Z,99.90
2023-05-04T00:52:16.121Z,99.90
2023-05-04T00:54:54.675Z,99.90
2023-05-04T00:57:33.429Z,99.90
2023-05-04T01:00:18.129Z,99.90
2023-05-04T01:02:52.238Z,99.90
2023-05-04T01:05:32.566Z,99.90
2023-05-04T01:08:21.633Z,99.90
2023-05-04T01:11:09.324Z,99.90
2023-05-04T01:13:45.768Z,99.90
2023-05-04T01:16:25.295Z,99.90
2023-05-04T01:19:04.218Z,99.90
2023-05-04T01:21:55.481Z,99.90
2023-05-04T01:24:34.663Z,99.90
2023-05-04T01:27:12.826Z,99.90
2023-05-04T01:29:53.249Z,99.90
2023-05-04T01:32:31.344Z,99.90
2023-05-04T01:35:07.118Z,99.90
2023-05-04T01:37:47.986Z,99.90
2023-05-04T01:40:27.789Z,99.90
2023-05-04T01:43:05.404Z,99.90
2023-05-04T01:45:50.439Z,99.90
2023-05-04T01:48:30.569Z,99.90
2023-05-04T01:51:15.118Z,99.90
2023-05-04T01:53:57.959Z,99.90
2023-05-04T01:56:32.958Z,99.90
2023-05-04T01:59:12.922Z,99.90
2023-05-04T02:01:52.301Z,99.90
2023-05-04T02:04:31.596Z,99.90
2023-05-04T02:07:08.592Z,99.90
2023-05-04T02:09:52.577Z,99.90
2023-05-04T02:12:36.027Z,99.90
2023-05-04T02:15:14.723Z,99.90
2023-05-04T02:17:57.910Z,99.90
2023-05-04T02:20:39.642Z,99.90
2023-05-04T02:23:16.843Z,99.90
2023-05-04T02:26:05.972Z,99.90
2023-05-04T02:28:42.380Z,99.90
2023-05-04T02:31:22.422Z,99.90
2023-05-04T02:33:56.286Z,99.90
2023-05-04T02:36:32.137Z,99.90
2023-05-04T02:39:09.433Z,99.90
2023-05-04T02:41:51.985Z,99.90
2023-05-04T02:44:30.920Z,99.90
2023-05-04T02:47:07.095Z,99.90
2023-05-04T02:49:46.065Z,99.90
2023-05-04T02:52:29.272Z,99.90
2023-05-04T02:55:07.397Z,99.90
2023-05-04T02:57:46.497Z,99.90
2023-05-04T03:00:23.521Z,99.90
2023-05-04T03:03:00.295Z,99.90
2023-05-04T03:05:38.255Z,99.90
2023-05-04T03:08:17.155Z,99.90
2023-05-04T03:10:56.140Z,99.90
2023-05-04T03:13:37.492Z,99.90
2023-05-04T03:16:17.838Z,99.90
2023-05-04T03:19:05.874Z,99.90
2023-05-04T03:21:47.703Z,99.90
2023-05-04T03:24:24.621Z,99.90
2023-05-04T03:27:21.399Z,99.90
2023-05-04T03:30:02.926Z,99.90
2023-05-04T03:32:39.082Z,99.90
2023-05-04T03:35:24.994Z,99.90
2023-05-04T03:38:04.453Z,99.90
2023-05-04T03:40:42.941Z,99.90
2023-05-04T03:43:23.593Z,99.90
2023-05-04T03:46:06.300Z,99.90
2023-05-04T03:48:45.345Z,99.90
2023-05-04T03:51:27.226Z,99.90
2023-05-04T03:54:04.518Z,99.90
2023-05-04T03:56:42.839Z,99.90
2023-05-04T03:59:28.419Z,99.90
2023-05-04T04:02:12.402Z,99.90
2023-05-04T04:04:53.869Z,99.90
2023-05-04T04:07:31.716Z,99.90
2023-05-04T04:10:15.883Z,99.90
2023-05-04T04:12:58.850Z,99.90
2023-05-04T04:15:38.183Z,99.90
2023-05-04T04:18:24.545Z,99.90
2023-05-04T04:21:06.792Z,99.90
2023-05-04T04:23:51.230Z,99.90
2023-05-04T04:26:28.944Z,99.90
2023-05-04T04:29:05.584Z,99.90
2023-05-04T04:31:44.535Z,99.90
2023-05-04T04:34:31.182Z,99.90
2023-05-04T04:37:09.221Z,99.90
2023-05-04T04:39:46.458Z,99.90
2023-05-04T04:42:24.800Z,99.90
2023-05-04T04:45:08.836Z,99.90
2023-05-04T04:47:47.024Z,99.90
2023-05-04T04:50:30.170Z,99.90
2023-05-04T04:53:10.386Z,99.90
2023-05-04T04:55:50.866Z,99.90
2023-05-04T04:58:32.521Z,99.90
2023-05-04T05:01:09.588Z,99.90
2023-05-04T05:03:51.492Z,99.90
2023-05-04T05:06:31.372Z,99.90
2023-05-04T05:09:06.551Z,99.90
2023-05-04T05:11:44.559Z,99.90
2023-05-04T05:14:26.544Z,99.90
2023-05-04T05:17:17.144Z,99.90
2023-05-04T05:19:55.282Z,99.90
2023-05-04T05:22:36.717Z,99.90
2023-05-04T05:25:20.423Z,99.90
2023-05-04T05:30:50.904Z,99.90
2023-05-04T05:33:50.000Z,99.90
2023-05-04T05:36:34.769Z,99.90
2023-05-04T05:39:23.162Z,99.90
2023-05-04T05:48:08.620Z,99.90
2023-05-04T05:50:58.872Z,99.90
2023-05-04T05:53:43.602Z,99.90
2023-05-04T05:56:33.816Z,99.90
2023-05-04T05:59:19.197Z,99.90
2023-05-04T06:01:55.279Z,99.90
2023-05-04T06:04:30.597Z,99.90
2023-05-04T06:07:08.815Z,99.90
2023-05-04T06:09:47.799Z,99.90
2023-05-04T06:12:34.586Z,99.90
2023-05-04T06:15:21.391Z,99.90
2023-05-04T06:18:19.427Z,99.90
2023-05-04T06:21:28.713Z,99.90
2023-05-04T06:24:33.001Z,99.90
2023-05-04T06:27:21.381Z,99.90
2023-05-04T06:30:06.402Z,99.90
2023-05-04T06:32:48.785Z,99.90
2023-05-04T06:35:55.088Z,99.90
2023-05-04T06:38:37.966Z,99.90
2023-05-04T06:42:03.551Z,99.90
2023-05-04T06:45:12.256Z,99.90
2023-05-04T06:48:10.869Z,99.30
2023-05-04T06:50:50.814Z,99.80
2023-05-04T06:53:36.414Z,98.20
2023-05-04T06:56:14.025Z,97.70
2023-05-04T06:59:23.580Z,97.20
2023-05-04T07:02:24.302Z,95.90
2023-05-04T07:05:31.561Z,96.10
2023-05-04T07:08:35.530Z,95.10
2023-05-04T07:17:30.911Z,92.60
2023-05-04T07:20:17.066Z,91.80
2023-05-04T07:23:00.249Z,90.20
2023-05-04T07:25:43.060Z,86.90
2023-05-04T07:28:27.337Z,85.20
2023-05-04T07:31:18.750Z,81.10
2023-05-04T07:39:59.492Z,84.50
2023-05-04T07:52:29.963Z,79.20
2023-05-04T07:55:09.996Z,81.10
2023-05-04T08:26:20.211Z,70.30
2023-05-04T09:04:04.670Z,67.20
2023-05-04T09:06:53.229Z,67.50
2023-05-04T10:49:25.062Z,65.70
2023-05-04T10:52:33.263Z,64.80
2023-05-04T10:55:34.549Z,68.90
2023-05-04T10:58:27.262Z,67.00
2023-05-04T11:01:18.725Z,65.30
2023-05-04T11:04:09.414Z,64.90
2023-05-04T11:17:28.051Z,66.70
2023-05-04T11:26:42.769Z,67.60
2023-05-04T11:29:35.050Z,66.80
2023-05-04T11:44:05.792Z,65.60
2023-05-04T11:47:12.635Z,66.80
2023-05-04T11:53:20.107Z,67.50
2023-05-04T11:56:01.806Z,64.50
2023-05-04T12:01:56.795Z,67.20
2023-05-04T12:04:58.375Z,67.00
2023-05-04T12:07:40.919Z,65.10
2023-05-04T12:10:36.028Z,67.80
2023-05-04T12:16:28.600Z,67.60
2023-05-04T12:32:39.809Z,67.30
2023-05-04T12:41:53.750Z,67.50
2023-05-04T12:47:39.330Z,68.50
2023-05-04T12:50:23.042Z,72.20
2023-05-04T12:53:00.261Z,68.70
2023-05-04T12:55:45.058Z,68.70
2023-05-04T12:58:34.241Z,68.70
2023-05-04T13:01:15.715Z,67.40
2023-05-04T13:03:52.282Z,66.60
2023-05-04T13:06:31.895Z,67.00
2023-05-04T13:09:11.192Z,67.90
2023-05-04T13:15:26.190Z,68.40
2023-05-04T14:10:27.334Z,68.20
2023-05-04T14:57:16.668Z,68.10
2023-05-04T15:00:02.259Z,68.30
2023-05-04T15:02:39.320Z,68.20
2023-05-04T15:05:27.094Z,66.80
2023-05-04T15:10:41.175Z,68.10
2023-05-04T15:17:11.557Z,67.70
2023-05-04T15:23:24.365Z,68.20
2023-05-04T16:40:04.497Z,68.20
2023-05-04T16:58:51.765Z,73.10
2023-05-04T17:04:43.009Z,72.20
2023-05-04T17:07:40.396Z,71.90
2023-05-04T17:10:26.294Z,72.50
2023-05-04T17:13:13.455Z,71.80
2023-05-04T17:26:34.072Z,73.10
2023-05-04T17:35:03.250Z,73.90
2023-05-04T17:38:02.458Z,74.30
2023-05-04T17:40:40.204Z,74.10
2023-05-04T17:43:21.336Z,75.30
2023-05-04T17:46:19.033Z,75.80
2023-05-04T17:49:02.540Z,76.20
2023-05-04T17:54:48.013Z,77.60
2023-05-04T17:57:26.879Z,77.30
2023-05-04T18:00:07.825Z,77.60
2023-05-04T18:02:48.768Z,78.80
2023-05-04T18:05:26.334Z,79.30
2023-05-04T18:08:12.926Z,78.90
2023-05-04T18:10:57.322Z,79.30
2023-05-04T18:13:33.922Z,80.60
2023-05-04T18:16:13.602Z,79.80
2023-05-04T18:18:49.757Z,79.70
2023-05-04T18:21:33.634Z,80.20
2023-05-04T18:30:48.015Z,80.40
2023-05-04T18:33:26.953Z,81.10
2023-05-04T18:36:12.648Z,81.10
2023-05-04T18:38:54.696Z,81.50
2023-05-04T18:41:36.812Z,81.50
2023-05-04T18:44:26.972Z,81.20
2023-05-04T18:50:12.630Z,81.60
2023-05-04T18:55:53.144Z,82.50
2023-05-04T18:58:33.748Z,82.20
2023-05-04T19:04:07.292Z,82.90
2023-05-04T19:06:53.675Z,84.40
2023-05-04T19:09:33.410Z,85.30
2023-05-04T19:12:16.219Z,83.80
2023-05-04T19:14:52.579Z,83.80
2023-05-04T19:17:32.580Z,84.70
2023-05-04T19:20:17.242Z,84.90
2023-05-04T19:22:59.168Z,85.30
2023-05-04T19:25:39.208Z,84.60
2023-05-04T19:28:15.264Z,85.90
2023-05-04T19:30:54.410Z,87.00
2023-05-04T19:33:44.641Z,88.30
2023-05-04T19:36:23.636Z,90.70
2023-05-04T19:39:05.318Z,90.70
2023-05-04T19:41:39.867Z,90.30
2023-05-04T19:44:20.675Z,91.00
2023-05-04T19:46:59.786Z,90.50
2023-05-04T19:49:37.251Z,90.60
2023-05-04T19:52:13.777Z,90.40
2023-05-04T19:54:57.682Z,91.50
2023-05-04T19:57:33.752Z,92.30
2023-05-04T20:00:13.696Z,93.40
2023-05-04T20:02:48.753Z,94.90
2023-05-04T20:05:26.313Z,96.40
2023-05-04T20:08:05.125Z,95.40
2023-05-04T20:10:50.345Z,95.60
2023-05-04T20:13:27.427Z,95.80
2023-05-04T20:16:05.813Z,97.70
2023-05-04T20:18:45.988Z,99.70
2023-05-04T20:21:24.435Z,99.90
2023-05-04T20:23:59.673Z,99.90
2023-05-04T20:26:39.024Z,99.90
2023-05-04T20:29:17.013Z,99.90
2023-05-04T20:31:53.132Z,99.90
2023-05-04T20:34:29.952Z,99.90
2023-05-04T20:37:07.856Z,99.90
2023-05-04T20:39:50.995Z,99.90
2023-05-04T20:42:31.809Z,99.90
2023-05-04T20:45:10.434Z,99.90
2023-05-04T20:47:47.712Z,99.90
2023-05-04T20:50:27.562Z,99.90
2023-05-04T20:53:05.573Z,99.90
2023-05-04T20:55:46.925Z,99.90
2023-05-04T20:58:29.723Z,99.90
2023-05-04T21:01:08.413Z,99.90
2023-05-04T21:03:51.059Z,99.90
2023-05-04T21:06:25.565Z,99.90
2023-05-04T21:09:04.554Z,99.90
2023-05-04T21:11:41.936Z,99.90
2023-05-04T21:14:22.614Z,99.90
2023-05-04T21:16:59.615Z,99.90
2023-05-04T21:19:39.543Z,99.90
2023-05-04T21:22:20.529Z,99.90
2023-05-04T21:25:11.343Z,99.90
2023-05-04T21:27:45.804Z,99.90
2023-05-04T21:30:30.586Z,99.90
2023-05-04T21:33:09.734Z,99.90
2023-05-04T21:35:52.975Z,99.90
2023-05-04T21:38:37.826Z,99.90
2023-05-04T21:41:20.999Z,99.90
2023-05-04T21:44:01.882Z,99.90
2023-05-04T21:46:44.174Z,99.90
2023-05-04T21:49:25.806Z,99.90
2023-05-04T21:52:04.887Z,99.90
2023-05-04T21:54:53.360Z,99.90
2023-05-04T21:57:33.089Z,99.90
2023-05-04T22:00:13.196Z,99.90
2023-05-04T22:02:52.085Z,99.90
2023-05-04T22:05:34.334Z,99.90
2023-05-04T22:08:09.863Z,99.90
2023-05-04T22:10:44.900Z,99.90
2023-05-04T22:13:19.639Z,99.90
2023-05-04T22:15:58.512Z,99.90
2023-05-04T22:18:39.241Z,99.90
2023-05-04T22:21:15.867Z,99.90
2023-05-04T22:23:52.367Z,99.90
2023-05-04T22:26:28.011Z,99.90
2023-05-04T22:29:07.357Z,99.90
2023-05-04T22:31:51.278Z,99.90
2023-05-04T22:34:30.288Z,99.90
2023-05-04T22:37:09.404Z,99.90
2023-05-04T22:39:44.712Z,99.90
2023-05-04T22:42:22.151Z,99.90
2023-05-04T22:44:59.605Z,99.90
2023-05-04T22:47:37.722Z,99.90
2023-05-04T22:50:11.237Z,99.90
2023-05-04T22:52:49.599Z,99.90
2023-05-04T22:55:25.907Z,99.90
2023-05-04T22:58:18.848Z,99.90
2023-05-04T23:00:56.336Z,99.90
2023-05-04T23:03:31.685Z,99.90
2023-05-04T23:06:09.782Z,99.90
2023-05-04T23:08:48.372Z,99.90
2023-05-04T23:11:24.885Z,99.90
2023-05-04T23:14:01.359Z,99.90
2023-05-04T23:16:37.763Z,99.90
2023-05-04T23:19:13.226Z,99.90
2023-05-04T23:21:49.403Z,99.90
2023-05-04T23:24:29.439Z,99.90
2023-05-04T23:27:04.309Z,99.90
2023-05-04T23:29:42.148Z,99.90
2023-05-04T23:32:18.329Z,99.90
2023-05-04T23:34:54.363Z,99.90
2023-05-04T23:37:33.081Z,99.90
2023-05-04T23:40:15.950Z,99.90
2023-05-04T23:42:53.600Z,99.90
2023-05-04T23:45:33.741Z,99.90
2023-05-04T23:48:11.156Z,99.90
2023-05-04T23:50:46.863Z,99.90
2023-05-04T23:53:24.931Z,99.90
2023-05-04T23:56:05.616Z,99.90
2023-05-04T23:58:41.780Z,99.90
